createdAt,value
2017-09-25T00:00:08.879Z,98.53
2017-09-25T00:00:36.897Z,98.53
2017-09-25T00:01:04.834Z,99.1
2017-09-25T00:01:32.987Z,99.1
2017-09-25T00:02:00.798Z,98.53
2017-09-25T00:02:28.844Z,98.91
2017-09-25T00:02:57.001Z,99.1
2017-09-25T00:03:25.138Z,98.91
2017-09-25T00:03:53.312Z,98.91
2017-09-25T00:04:21.429Z,98.82
2017-09-25T00:04:49.499Z,99.1
2017-09-25T00:05:17.641Z,98.72
2017-09-25T00:05:45.587Z,98.91
2017-09-25T00:06:13.735Z,99.29
2017-09-25T00:06:41.767Z,99.1
2017-09-25T00:07:09.843Z,99.29
2017-09-25T00:07:37.971Z,99.29
2017-09-25T00:08:05.920Z,99.39
2017-09-25T00:08:33.849Z,99.29
2017-09-25T00:09:01.897Z,99.2
2017-09-25T00:09:30.013Z,99.49
2017-09-25T00:09:58.031Z,99.58
2017-09-25T00:10:26.083Z,99.58
2017-09-25T00:10:54.245Z,99.29
2017-09-25T00:11:22.277Z,99.39
2017-09-25T00:11:50.412Z,99.99
2017-09-25T00:12:18.564Z,99.53
2017-09-25T00:12:46.609Z,99.99
2017-09-25T00:13:14.429Z,99.82
2017-09-25T00:13:42.281Z,99.87
2017-09-25T00:14:10.344Z,99.99
2017-09-25T00:14:38.399Z,99.99
2017-09-25T00:15:06.440Z,99.99
2017-09-25T00:15:34.725Z,99.99
2017-09-25T00:16:02.459Z,99.99
2017-09-25T00:16:30.499Z,99.99
2017-09-25T00:16:58.638Z,99.99
2017-09-25T00:17:26.548Z,99.99
2017-09-25T00:17:54.611Z,99.99
2017-09-25T00:18:22.741Z,99.99
2017-09-25T00:18:50.584Z,99.99
2017-09-25T00:19:18.514Z,99.99
2017-09-25T00:19:46.630Z,99.96
2017-09-25T00:20:14.881Z,99.99
2017-09-25T00:20:42.916Z,99.99
2017-09-25T00:21:11.040Z,99.96
2017-09-25T00:21:39.046Z,99.96
2017-09-25T00:22:06.879Z,99.96
2017-09-25T00:22:35.005Z,99.96
2017-09-25T00:23:02.958Z,99.68
2017-09-25T00:23:31.073Z,99.99
2017-09-25T00:23:59.287Z,99.77
2017-09-25T00:24:27.429Z,99.73
2017-09-25T00:24:55.372Z,99.96
2017-09-25T00:25:23.616Z,99.05
2017-09-25T00:25:51.698Z,99.53
2017-09-25T00:26:19.828Z,99.24
2017-09-25T00:26:47.767Z,99.73
2017-09-25T00:27:15.786Z,99.99
2017-09-25T00:27:43.733Z,99.91
2017-09-25T00:28:11.679Z,99.82
2017-09-25T00:28:39.811Z,99.53
2017-09-25T00:29:07.941Z,99.99
2017-09-25T00:29:36.054Z,99.99
2017-09-25T00:30:03.989Z,99.99
2017-09-25T00:30:32.428Z,99.99
2017-09-25T00:31:00.487Z,99.99
2017-09-25T00:31:28.423Z,99.99
2017-09-25T00:31:56.533Z,99.99
2017-09-25T00:32:24.572Z,99.99
2017-09-25T00:32:52.733Z,99.99
2017-09-25T00:33:20.862Z,99.99
2017-09-25T00:33:48.835Z,99.99
2017-09-25T00:34:16.890Z,99.99
2017-09-25T00:34:44.837Z,99.99
2017-09-25T00:35:12.676Z,99.99
2017-09-25T00:35:40.662Z,99.99
2017-09-25T00:36:08.683Z,99.99
2017-09-25T00:36:36.723Z,99.99
2017-09-25T00:37:04.758Z,99.99
2017-09-25T00:37:32.903Z,99.99
2017-09-25T00:38:00.929Z,99.99
2017-09-25T00:38:28.834Z,99.99
2017-09-25T00:38:56.991Z,99.99
2017-09-25T00:39:25.035Z,99.99
2017-09-25T00:39:53.146Z,99.99
2017-09-25T00:40:21.111Z,99.99
2017-09-25T00:40:49.156Z,99.99
2017-09-25T00:41:17.186Z,99.99
2017-09-25T00:41:45.334Z,99.99
2017-09-25T00:42:13.452Z,99.99
2017-09-25T00:42:41.594Z,99.99
2017-09-25T00:43:09.552Z,99.99
2017-09-25T00:43:37.579Z,99.99
2017-09-25T00:44:05.500Z,99.99
2017-09-25T00:44:33.421Z,99.99
2017-09-25T00:45:01.367Z,99.99
2017-09-25T00:45:29.617Z,99.99
2017-09-25T00:45:57.677Z,99.99
2017-09-25T00:46:25.742Z,99.99
2017-09-25T00:46:53.892Z,99.99
2017-09-25T00:47:21.919Z,99.99
2017-09-25T00:47:50.065Z,99.99
2017-09-25T00:48:17.914Z,99.99
2017-09-25T00:48:46.038Z,99.99
2017-09-25T00:49:14.185Z,99.99
2017-09-25T00:49:42.197Z,99.99
2017-09-25T00:50:10.344Z,99.99
2017-09-25T00:50:38.665Z,99.99
2017-09-25T00:51:06.799Z,99.99
2017-09-25T00:51:34.781Z,99.99
2017-09-25T00:52:02.933Z,99.99
2017-09-25T00:52:30.851Z,99.99
2017-09-25T00:52:58.789Z,99.99
2017-09-25T00:53:26.832Z,99.99
2017-09-25T00:53:54.880Z,99.99
2017-09-25T00:54:22.916Z,99.99
2017-09-25T00:54:50.893Z,99.99
2017-09-25T00:55:18.731Z,99.99
2017-09-25T00:55:46.901Z,99.99
2017-09-25T00:56:15.075Z,99.96
2017-09-25T00:56:43.094Z,99.96
2017-09-25T00:57:11.143Z,99.96
2017-09-25T00:57:39.066Z,99.77
2017-09-25T00:58:07.037Z,99.96
2017-09-25T00:58:35.055Z,99.96
2017-09-25T00:59:03.200Z,99.99
2017-09-25T00:59:31.144Z,99.99
2017-09-25T00:59:59.183Z,99.87
2017-09-25T01:00:27.301Z,99.82
2017-09-25T01:00:55.514Z,99.96
2017-09-25T01:01:23.441Z,99.87
2017-09-25T01:01:51.470Z,99.99
2017-09-25T01:02:19.517Z,99.99
2017-09-25T01:02:47.554Z,99.96
2017-09-25T01:03:15.270Z,99.99
2017-09-25T01:03:43.242Z,99.99
2017-09-25T01:04:11.289Z,99.96
2017-09-25T01:04:39.433Z,99.99
2017-09-25T01:05:07.549Z,99.99
2017-09-25T01:05:35.491Z,99.58
2017-09-25T01:06:03.535Z,99.77
2017-09-25T01:06:31.641Z,99.39
2017-09-25T01:06:59.777Z,99.58
2017-09-25T01:07:27.912Z,99.39
2017-09-25T01:07:55.976Z,99.58
2017-09-25T01:08:24.006Z,99.39
2017-09-25T01:08:52.137Z,99.49
2017-09-25T01:09:20.152Z,99.29
2017-09-25T01:09:47.963Z,99.1
2017-09-25T01:10:15.795Z,99.1
2017-09-25T01:10:43.961Z,99.99
2017-09-25T01:11:12.092Z,99.29
2017-09-25T01:11:40.121Z,99.29
2017-09-25T01:12:08.267Z,99.99
2017-09-25T01:12:36.363Z,99.99
2017-09-25T01:13:04.408Z,99.15
2017-09-25T01:13:32.336Z,99.53
2017-09-25T01:14:00.367Z,99.73
2017-09-25T01:14:28.504Z,99.82
2017-09-25T01:14:56.527Z,99.73
2017-09-25T01:15:24.678Z,99.15
2017-09-25T01:15:52.956Z,99.15
2017-09-25T01:16:20.988Z,99.53
2017-09-25T01:16:49.121Z,99.53
2017-09-25T01:17:17.083Z,99.58
2017-09-25T01:17:45.017Z,99.63
2017-09-25T01:18:13.062Z,99.29
2017-09-25T01:18:41.187Z,98.38
2017-09-25T01:19:09.346Z,97.66
2017-09-25T01:19:37.206Z,97.33
2017-09-25T01:20:05.125Z,96.89
2017-09-25T01:20:33.146Z,97.28
2017-09-25T01:21:01.083Z,96.99
2017-09-25T01:21:29.116Z,97.28
2017-09-25T01:21:57.135Z,97.09
2017-09-25T01:22:25.272Z,96.42
2017-09-25T01:22:53.391Z,96.42
2017-09-25T01:23:21.319Z,96.42
2017-09-25T01:23:49.358Z,96.51
2017-09-25T01:24:17.182Z,96.32
2017-09-25T01:24:45.203Z,96.7
2017-09-25T01:25:13.324Z,96.61
2017-09-25T01:25:41.465Z,96.7
2017-09-25T01:26:09.688Z,96.7
2017-09-25T01:26:37.650Z,96.32
2017-09-25T01:27:05.485Z,96.8
2017-09-25T01:27:33.324Z,96.47
2017-09-25T01:28:01.483Z,96.42
2017-09-25T01:28:29.600Z,96.51
2017-09-25T01:28:57.618Z,96.89
2017-09-25T01:29:25.752Z,96.51
2017-09-25T01:29:53.884Z,96.89
2017-09-25T01:30:21.942Z,96.8
2017-09-25T01:30:49.884Z,96.51
2017-09-25T01:31:17.815Z,96.51
2017-09-25T01:31:45.940Z,96.7
2017-09-25T01:32:13.815Z,96.8
2017-09-25T01:32:41.660Z,96.32
2017-09-25T01:33:09.810Z,96.7
2017-09-25T01:33:37.933Z,96.89
2017-09-25T01:34:05.952Z,96.8
2017-09-25T01:34:34.098Z,96.89
2017-09-25T01:35:02.225Z,96.99
2017-09-25T01:35:30.160Z,97.09
2017-09-25T01:35:58.464Z,96.89
2017-09-25T01:36:26.393Z,96.8
2017-09-25T01:36:54.321Z,97.28
2017-09-25T01:37:22.375Z,97.28
2017-09-25T01:37:50.526Z,97.66
2017-09-25T01:38:18.619Z,97.56
2017-09-25T01:38:46.337Z,97.95
2017-09-25T01:39:14.455Z,97.9
2017-09-25T01:39:42.382Z,97.66
2017-09-25T01:40:10.439Z,98.1
2017-09-25T01:40:38.585Z,97.42
2017-09-25T01:41:06.713Z,97.61
2017-09-25T01:41:34.753Z,97.04
2017-09-25T01:42:02.790Z,96.66
2017-09-25T01:42:30.819Z,97.23
2017-09-25T01:42:58.948Z,97.23
2017-09-25T01:43:26.974Z,97.33
2017-09-25T01:43:54.931Z,97.52
2017-09-25T01:44:22.841Z,97.42
2017-09-25T01:44:51.003Z,96.75
2017-09-25T01:45:19.021Z,97.04
2017-09-25T01:45:47.122Z,96.85
2017-09-25T01:46:15.037Z,97.14
2017-09-25T01:46:43.090Z,97.23
2017-09-25T01:47:11.120Z,97.23
2017-09-25T01:47:39.292Z,96.94
2017-09-25T01:48:07.437Z,96.94
2017-09-25T01:48:35.349Z,97.04
2017-09-25T01:49:03.380Z,96.56
2017-09-25T01:49:31.510Z,96.27
2017-09-25T01:49:59.443Z,96.75
2017-09-25T01:50:27.487Z,96.37
2017-09-25T01:50:55.428Z,96.27
2017-09-25T01:51:23.643Z,96.47
2017-09-25T01:51:51.594Z,96.37
2017-09-25T01:52:19.535Z,96.18
2017-09-25T01:52:47.552Z,96.37
2017-09-25T01:53:15.559Z,96.56
2017-09-25T01:53:43.679Z,96.56
2017-09-25T01:54:11.645Z,96.37
2017-09-25T01:54:39.679Z,96.66
2017-09-25T01:55:07.838Z,96.56
2017-09-25T01:55:35.871Z,96.47
2017-09-25T01:56:03.845Z,96.94
2017-09-25T01:56:31.979Z,96.85
2017-09-25T01:56:59.884Z,96.85
2017-09-25T01:57:28.033Z,97.18
2017-09-25T01:57:56.052Z,96.94
2017-09-25T01:58:24.003Z,96.94
2017-09-25T01:58:52.059Z,96.94
2017-09-25T01:59:20.111Z,96.94
2017-09-25T01:59:48.161Z,96.94
2017-09-25T02:00:16.266Z,96.94
2017-09-25T02:00:44.403Z,96.7
2017-09-25T02:01:12.643Z,96.75
2017-09-25T02:01:40.676Z,96.94
2017-09-25T02:02:08.726Z,96.75
2017-09-25T02:02:36.687Z,97.23
2017-09-25T02:03:04.599Z,97.14
2017-09-25T02:03:32.649Z,96.94
2017-09-25T02:04:00.797Z,97.09
2017-09-25T02:04:28.926Z,97.04
2017-09-25T02:04:56.979Z,96.99
2017-09-25T02:05:24.807Z,97.04
2017-09-25T02:05:52.820Z,96.99
2017-09-25T02:06:21.055Z,97.56
2017-09-25T02:06:49.114Z,97.47
2017-09-25T02:07:17.144Z,97.38
2017-09-25T02:07:45.077Z,97.04
2017-09-25T02:08:13.212Z,97.04
2017-09-25T02:08:41.242Z,96.85
2017-09-25T02:09:09.375Z,97.42
2017-09-25T02:09:37.531Z,97.42
2017-09-25T02:10:05.481Z,97.14
2017-09-25T02:10:33.634Z,97.14
2017-09-25T02:11:01.771Z,97.61
2017-09-25T02:11:29.952Z,97.52
2017-09-25T02:11:58.090Z,97.09
2017-09-25T02:12:26.113Z,97.61
2017-09-25T02:12:54.240Z,97.56
2017-09-25T02:13:22.272Z,97.18
2017-09-25T02:13:50.284Z,97.66
2017-09-25T02:14:18.114Z,97.42
2017-09-25T02:14:46.153Z,97.23
2017-09-25T02:15:14.302Z,97.71
2017-09-25T02:15:42.246Z,97.56
2017-09-25T02:16:10.326Z,98.1
2017-09-25T02:16:38.367Z,98.1
2017-09-25T02:17:06.495Z,98.1
2017-09-25T02:17:34.472Z,97.9
2017-09-25T02:18:02.387Z,98.19
2017-09-25T02:18:30.409Z,98.1
2017-09-25T02:18:58.489Z,97.9
2017-09-25T02:19:26.495Z,98.1
2017-09-25T02:19:54.635Z,97.9
2017-09-25T02:20:22.606Z,97.66
2017-09-25T02:20:50.543Z,98.1
2017-09-25T02:21:18.474Z,97.76
2017-09-25T02:21:46.650Z,97.47
2017-09-25T02:22:14.787Z,97.66
2017-09-25T02:22:42.660Z,97.66
2017-09-25T02:23:10.691Z,97.28
2017-09-25T02:23:38.618Z,97.76
2017-09-25T02:24:06.557Z,97.85
2017-09-25T02:24:34.570Z,97.95
2017-09-25T02:25:02.592Z,97.95
2017-09-25T02:25:30.620Z,97.85
2017-09-25T02:25:58.669Z,97.47
2017-09-25T02:26:26.822Z,97.95
2017-09-25T02:26:54.883Z,97.61
2017-09-25T02:27:22.890Z,97.76
2017-09-25T02:27:50.812Z,97.85
2017-09-25T02:28:18.956Z,98.05
2017-09-25T02:28:46.890Z,98.1
2017-09-25T02:29:15.019Z,97.76
2017-09-25T02:29:43.167Z,97.9
2017-09-25T02:30:11.304Z,97.66
2017-09-25T02:30:39.442Z,98.05
2017-09-25T02:31:07.378Z,97.85
2017-09-25T02:31:35.594Z,98.1
2017-09-25T02:32:03.518Z,98.05
2017-09-25T02:32:31.560Z,98.05
2017-09-25T02:32:59.792Z,98.1
2017-09-25T02:33:27.935Z,97.9
2017-09-25T02:33:55.945Z,98.1
2017-09-25T02:34:24.111Z,97.9
2017-09-25T02:34:52.230Z,97.95
2017-09-25T02:35:20.164Z,97.81
2017-09-25T02:35:48.300Z,97.56
2017-09-25T02:36:16.314Z,97.95
2017-09-25T02:36:44.754Z,98.19
2017-09-25T02:37:12.905Z,98.14
2017-09-25T02:37:40.940Z,97.85
2017-09-25T02:38:08.863Z,97.95
2017-09-25T02:38:36.902Z,97.85
2017-09-25T02:39:04.819Z,98.52
2017-09-25T02:39:32.940Z,98.72
2017-09-25T02:40:00.966Z,98.38
2017-09-25T02:40:28.981Z,98.72
2017-09-25T02:40:56.906Z,98.33
2017-09-25T02:41:24.914Z,98.38
2017-09-25T02:41:53.184Z,98.57
2017-09-25T02:42:21.015Z,98.62
2017-09-25T02:42:48.950Z,98.67
2017-09-25T02:43:16.968Z,98.57
2017-09-25T02:43:45.107Z,98.19
2017-09-25T02:44:13.272Z,98.38
2017-09-25T02:44:41.308Z,98.48
2017-09-25T02:45:09.348Z,98.67
2017-09-25T02:45:37.515Z,98.91
2017-09-25T02:46:05.630Z,98.48
2017-09-25T02:46:33.671Z,98.81
2017-09-25T02:47:02.048Z,98.62
2017-09-25T02:47:30.108Z,98.81
2017-09-25T02:47:58.052Z,98.81
2017-09-25T02:48:26.027Z,98.52
2017-09-25T02:48:54.111Z,98.43
2017-09-25T02:49:22.234Z,98.43
2017-09-25T02:49:50.281Z,98.14
2017-09-25T02:50:18.418Z,98.33
2017-09-25T02:50:46.465Z,98.81
2017-09-25T02:51:14.635Z,98.62
2017-09-25T02:51:42.731Z,98.72
2017-09-25T02:52:10.893Z,99.1
2017-09-25T02:52:39.007Z,99.1
2017-09-25T02:53:07.063Z,99.1
2017-09-25T02:53:35.085Z,98.62
2017-09-25T02:54:03.109Z,99.19
2017-09-25T02:54:31.251Z,99.1
2017-09-25T02:54:59.386Z,99.19
2017-09-25T02:55:27.398Z,98.91
2017-09-25T02:55:55.520Z,99.48
2017-09-25T02:56:23.534Z,99.1
2017-09-25T02:56:51.662Z,99.19
2017-09-25T02:57:19.784Z,99.29
2017-09-25T02:57:47.849Z,99.39
2017-09-25T02:58:15.658Z,99.29
2017-09-25T02:58:43.790Z,99.01
2017-09-25T02:59:11.817Z,98.96
2017-09-25T02:59:39.887Z,99.24
2017-09-25T03:00:07.923Z,99.05
2017-09-25T03:00:35.779Z,99.01
2017-09-25T03:01:03.812Z,98.96
2017-09-25T03:01:31.856Z,98.96
2017-09-25T03:02:00.036Z,98.86
2017-09-25T03:02:28.069Z,99.05
2017-09-25T03:02:56.125Z,98.96
2017-09-25T03:03:24.249Z,98.96
2017-09-25T03:03:52.280Z,98.86
2017-09-25T03:04:20.226Z,98.76
2017-09-25T03:04:48.275Z,98.96
2017-09-25T03:05:16.115Z,98.67
2017-09-25T03:05:43.838Z,98.38
2017-09-25T03:06:11.969Z,98.28
2017-09-25T03:06:40.003Z,98.47
2017-09-25T03:07:08.239Z,98.28
2017-09-25T03:07:36.258Z,97.71
2017-09-25T03:08:04.373Z,98.1
2017-09-25T03:08:32.500Z,97.8
2017-09-25T03:09:00.623Z,97.9
2017-09-25T03:09:28.746Z,97.52
2017-09-25T03:09:56.863Z,97.61
2017-09-25T03:10:24.792Z,97.42
2017-09-25T03:10:52.926Z,97.52
2017-09-25T03:11:20.939Z,97.23
2017-09-25T03:11:48.940Z,96.75
2017-09-25T03:12:16.879Z,97.14
2017-09-25T03:12:44.804Z,96.66
2017-09-25T03:13:12.888Z,97.04
2017-09-25T03:13:41.047Z,96.75
2017-09-25T03:14:08.869Z,96.27
2017-09-25T03:14:36.914Z,96.56
2017-09-25T03:15:04.948Z,96.47
2017-09-25T03:15:33.068Z,96.66
2017-09-25T03:16:01.211Z,96.66
2017-09-25T03:16:29.132Z,96.56
2017-09-25T03:16:57.276Z,96.84
2017-09-25T03:17:25.327Z,96.75
2017-09-25T03:17:53.035Z,96.66
2017-09-25T03:18:21.162Z,96.84
2017-09-25T03:18:49.290Z,96.84
2017-09-25T03:19:17.432Z,96.84
2017-09-25T03:19:45.461Z,96.94
2017-09-25T03:20:13.510Z,97.14
2017-09-25T03:20:41.548Z,97.52
2017-09-25T03:21:09.590Z,97.33
2017-09-25T03:21:37.747Z,96.75
2017-09-25T03:22:06.016Z,97.61
2017-09-25T03:22:34.034Z,97.23
2017-09-25T03:23:01.854Z,97.14
2017-09-25T03:23:29.679Z,97.04
2017-09-25T03:23:57.625Z,97.33
2017-09-25T03:24:25.546Z,97.8
2017-09-25T03:24:53.580Z,98.1
2017-09-25T03:25:21.617Z,98.38
2017-09-25T03:25:49.465Z,98.57
2017-09-25T03:26:17.479Z,98.57
2017-09-25T03:26:45.417Z,99.15
2017-09-25T03:27:13.721Z,98.96
2017-09-25T03:27:41.668Z,99.15
2017-09-25T03:28:09.720Z,99.91
2017-09-25T03:28:37.756Z,99.99
2017-09-25T03:29:05.788Z,99.63
2017-09-25T03:29:33.811Z,99.43
2017-09-25T03:30:01.937Z,99.99
2017-09-25T03:30:29.987Z,99.99
2017-09-25T03:30:57.952Z,99.99
2017-09-25T03:31:25.770Z,99.99
2017-09-25T03:31:53.931Z,99.99
2017-09-25T03:32:22.292Z,99.99
2017-09-25T03:32:50.226Z,99.99
2017-09-25T03:33:18.166Z,99.99
2017-09-25T03:33:46.089Z,99.99
2017-09-25T03:34:14.122Z,99.99
2017-09-25T03:34:42.055Z,99.99
2017-09-25T03:35:10.091Z,99.99
2017-09-25T03:35:38.022Z,99.99
2017-09-25T03:36:06.141Z,99.99
2017-09-25T03:36:34.077Z,99.99
2017-09-25T03:37:02.193Z,99.99
2017-09-25T03:37:30.309Z,99.99
2017-09-25T03:37:58.140Z,99.99
2017-09-25T03:38:26.303Z,99.99
2017-09-25T03:38:54.136Z,99.99
2017-09-25T03:39:22.087Z,99.99
2017-09-25T03:39:50.008Z,99.99
2017-09-25T03:40:17.953Z,99.99
2017-09-25T03:40:46.103Z,99.99
2017-09-25T03:41:14.246Z,99.99
2017-09-25T03:41:42.301Z,99.99
2017-09-25T03:42:10.565Z,99.99
2017-09-25T03:42:38.507Z,99.99
2017-09-25T03:43:06.416Z,99.99
2017-09-25T03:43:34.566Z,99.99
2017-09-25T03:44:02.579Z,99.99
2017-09-25T03:44:30.611Z,99.99
2017-09-25T03:44:58.650Z,99.99
2017-09-25T03:45:26.573Z,99.99
2017-09-25T03:45:54.582Z,99.99
2017-09-25T03:46:22.617Z,99.99
2017-09-25T03:46:50.576Z,99.99
2017-09-25T03:47:18.717Z,99.99
2017-09-25T03:47:46.762Z,99.99
2017-09-25T03:48:14.697Z,99.99
2017-09-25T03:48:42.828Z,99.99
2017-09-25T03:49:10.873Z,99.99
2017-09-25T03:49:39.013Z,99.99
2017-09-25T03:50:06.832Z,99.99
2017-09-25T03:50:34.772Z,99.99
2017-09-25T03:51:02.598Z,99.99
2017-09-25T03:51:30.647Z,99.99
2017-09-25T03:51:58.678Z,99.99
2017-09-25T03:52:26.912Z,99.99
2017-09-25T03:52:55.043Z,99.99
2017-09-25T03:53:23.191Z,99.99
2017-09-25T03:53:51.145Z,99.99
2017-09-25T03:54:19.056Z,99.99
2017-09-25T03:54:47.095Z,99.99
2017-09-25T03:55:15.122Z,99.99
2017-09-25T03:55:43.069Z,99.99
2017-09-25T03:56:11.197Z,99.99
2017-09-25T03:56:39.238Z,99.99
2017-09-25T03:57:07.300Z,99.99
2017-09-25T03:57:35.422Z,99.99
2017-09-25T03:58:03.575Z,99.99
2017-09-25T03:58:31.617Z,99.99
2017-09-25T03:58:59.740Z,99.99
2017-09-25T03:59:27.762Z,99.99
2017-09-25T03:59:55.671Z,99.99
2017-09-25T04:00:23.626Z,99.99
2017-09-25T04:00:51.792Z,99.99
2017-09-25T04:01:19.933Z,99.99
2017-09-25T04:01:47.866Z,99.99
2017-09-25T04:02:15.897Z,99.99
2017-09-25T04:02:44.132Z,99.99
2017-09-25T04:03:12.235Z,99.99
2017-09-25T04:03:40.324Z,99.99
2017-09-25T04:04:08.479Z,99.99
2017-09-25T04:04:36.500Z,99.99
2017-09-25T04:05:04.212Z,99.99
2017-09-25T04:05:32.234Z,99.99
2017-09-25T04:06:00.382Z,99.99
2017-09-25T04:06:28.314Z,99.99
2017-09-25T04:06:56.238Z,99.99
2017-09-25T04:07:24.363Z,99.99
2017-09-25T04:07:52.310Z,99.99
2017-09-25T04:08:20.218Z,99.99
2017-09-25T04:08:48.363Z,99.99
2017-09-25T04:09:16.366Z,99.99
2017-09-25T04:09:44.309Z,99.99
2017-09-25T04:10:12.422Z,99.99
2017-09-25T04:10:40.470Z,99.99
2017-09-25T04:11:08.376Z,99.99
2017-09-25T04:11:36.503Z,99.99
2017-09-25T04:12:04.436Z,99.99
2017-09-25T04:12:32.455Z,99.99
2017-09-25T04:13:00.488Z,99.99
2017-09-25T04:13:28.410Z,99.99
2017-09-25T04:13:56.443Z,99.99
2017-09-25T04:14:24.276Z,99.99
2017-09-25T04:14:52.007Z,99.99
2017-09-25T04:15:19.857Z,99.99
2017-09-25T04:15:47.902Z,99.99
2017-09-25T04:16:15.935Z,99.99
2017-09-25T04:16:44.109Z,99.99
2017-09-25T04:17:12.240Z,99.99
2017-09-25T04:17:40.461Z,99.99
2017-09-25T04:18:08.599Z,99.99
2017-09-25T04:18:36.419Z,99.99
2017-09-25T04:19:04.372Z,99.99
2017-09-25T04:19:32.403Z,99.99
2017-09-25T04:20:00.528Z,99.99
2017-09-25T04:20:28.656Z,99.99
2017-09-25T04:20:56.787Z,99.99
2017-09-25T04:21:24.704Z,99.99
2017-09-25T04:21:52.642Z,99.99
2017-09-25T04:22:20.588Z,99.99
2017-09-25T04:22:48.511Z,99.99
2017-09-25T04:23:16.462Z,99.99
2017-09-25T04:23:44.506Z,99.99
2017-09-25T04:24:12.648Z,99.99
2017-09-25T04:24:40.663Z,99.99
2017-09-25T04:25:08.592Z,99.99
2017-09-25T04:25:36.746Z,99.99
2017-09-25T04:26:04.784Z,99.99
2017-09-25T04:26:32.835Z,99.99
2017-09-25T04:27:00.977Z,99.99
2017-09-25T04:27:29.021Z,99.99
2017-09-25T04:27:57.170Z,99.99
2017-09-25T04:28:25.206Z,99.99
2017-09-25T04:28:53.144Z,99.99
2017-09-25T04:29:21.058Z,99.99
2017-09-25T04:29:49.089Z,99.99
2017-09-25T04:30:17.141Z,99.99
2017-09-25T04:30:45.196Z,99.99
2017-09-25T04:31:13.067Z,99.99
2017-09-25T04:31:41.097Z,99.99
2017-09-25T04:32:09.020Z,99.99
2017-09-25T04:32:37.246Z,99.99
2017-09-25T04:33:05.385Z,99.99
2017-09-25T04:33:33.448Z,99.99
2017-09-25T04:34:01.382Z,99.99
2017-09-25T04:34:29.491Z,99.99
2017-09-25T04:34:57.634Z,99.99
2017-09-25T04:35:25.777Z,99.99
2017-09-25T04:35:53.734Z,99.99
2017-09-25T04:36:21.762Z,99.99
2017-09-25T04:36:49.931Z,99.99
2017-09-25T04:37:18.065Z,99.99
2017-09-25T04:37:46.184Z,99.99
2017-09-25T04:38:14.224Z,99.99
2017-09-25T04:38:42.157Z,99.99
2017-09-25T04:39:10.279Z,99.99
2017-09-25T04:39:38.419Z,99.99
2017-09-25T04:40:06.359Z,99.99
2017-09-25T04:40:34.493Z,99.99
2017-09-25T04:41:02.552Z,99.99
2017-09-25T04:41:30.496Z,99.99
2017-09-25T04:41:58.440Z,99.99
2017-09-25T04:42:26.367Z,99.99
2017-09-25T04:42:54.735Z,99.99
2017-09-25T04:43:22.788Z,99.99
2017-09-25T04:43:50.829Z,99.99
2017-09-25T04:44:18.996Z,99.99
2017-09-25T04:44:47.064Z,99.99
2017-09-25T04:45:15.034Z,99.99
2017-09-25T04:45:42.999Z,99.99
2017-09-25T04:46:10.986Z,99.99
2017-09-25T04:46:38.922Z,99.99
2017-09-25T04:47:06.949Z,99.99
2017-09-25T04:47:34.949Z,99.99
2017-09-25T04:48:03.023Z,99.99
2017-09-25T04:48:31.137Z,99.99
2017-09-25T04:48:59.225Z,99.99
2017-09-25T04:49:27.377Z,99.99
2017-09-25T04:49:55.226Z,99.99
2017-09-25T04:50:23.319Z,99.99
2017-09-25T04:50:51.324Z,99.99
2017-09-25T04:51:19.389Z,99.99
2017-09-25T04:51:47.417Z,99.99
2017-09-25T04:52:15.481Z,99.99
2017-09-25T04:52:43.517Z,99.99
2017-09-25T04:53:11.651Z,99.99
2017-09-25T04:53:39.684Z,99.99
2017-09-25T04:54:07.717Z,99.99
2017-09-25T04:54:35.840Z,99.99
2017-09-25T04:55:03.870Z,99.99
2017-09-25T04:55:31.995Z,99.99
2017-09-25T04:56:00.036Z,99.99
2017-09-25T04:56:27.886Z,99.99
2017-09-25T04:56:55.821Z,99.99
2017-09-25T04:57:23.762Z,99.99
2017-09-25T04:57:51.993Z,99.99
2017-09-25T04:58:20.140Z,99.99
2017-09-25T04:58:48.178Z,99.99
2017-09-25T04:59:16.334Z,99.99
2017-09-25T04:59:44.258Z,99.99
2017-09-25T05:00:12.227Z,99.99
2017-09-25T05:00:40.244Z,99.99
2017-09-25T05:01:08.079Z,99.99
2017-09-25T05:01:36.104Z,99.99
2017-09-25T05:02:04.149Z,99.99
2017-09-25T05:02:32.098Z,99.99
2017-09-25T05:03:00.222Z,99.99
2017-09-25T05:03:28.254Z,99.99
2017-09-25T05:03:56.210Z,99.99
2017-09-25T05:04:24.240Z,99.99
2017-09-25T05:04:52.286Z,99.99
2017-09-25T05:05:20.417Z,99.99
2017-09-25T05:05:48.565Z,99.99
2017-09-25T05:06:16.708Z,99.99
2017-09-25T05:06:44.851Z,99.99
2017-09-25T05:07:13.003Z,99.99
2017-09-25T05:07:41.157Z,99.99
2017-09-25T05:08:09.391Z,99.99
2017-09-25T05:08:37.461Z,99.99
2017-09-25T05:09:05.281Z,99.99
2017-09-25T05:09:33.316Z,99.99
2017-09-25T05:10:01.367Z,99.99
2017-09-25T05:10:29.401Z,99.99
2017-09-25T05:10:57.352Z,99.99
2017-09-25T05:11:25.362Z,99.99
2017-09-25T05:11:53.211Z,99.99
2017-09-25T05:12:21.340Z,99.99
2017-09-25T05:12:49.473Z,99.99
2017-09-25T05:13:17.537Z,99.99
2017-09-25T05:13:45.564Z,99.99
2017-09-25T05:14:13.594Z,99.99
2017-09-25T05:14:41.524Z,99.99
2017-09-25T05:15:09.576Z,99.99
2017-09-25T05:15:37.606Z,99.99
2017-09-25T05:16:05.554Z,99.99
2017-09-25T05:16:33.483Z,99.99
2017-09-25T05:17:01.532Z,99.99
2017-09-25T05:17:29.554Z,99.99
2017-09-25T05:17:57.601Z,99.99
2017-09-25T05:18:25.640Z,99.99
2017-09-25T05:18:53.797Z,99.99
2017-09-25T05:19:21.745Z,99.99
2017-09-25T05:19:49.901Z,99.99
2017-09-25T05:20:17.936Z,99.99
2017-09-25T05:20:45.956Z,99.99
2017-09-25T05:21:13.768Z,99.99
2017-09-25T05:21:41.716Z,99.99
2017-09-25T05:22:09.756Z,99.99
2017-09-25T05:22:37.892Z,99.99
2017-09-25T05:23:06.247Z,99.99
2017-09-25T05:23:34.391Z,99.99
2017-09-25T05:24:02.450Z,99.99
2017-09-25T05:24:30.596Z,99.99
2017-09-25T05:24:58.732Z,99.99
2017-09-25T05:25:26.774Z,99.99
2017-09-25T05:25:54.709Z,99.99
2017-09-25T05:26:22.888Z,99.99
2017-09-25T05:26:50.822Z,99.99
2017-09-25T05:27:18.759Z,99.99
2017-09-25T05:27:46.687Z,99.99
2017-09-25T05:28:14.928Z,99.99
2017-09-25T05:28:42.949Z,99.99
2017-09-25T05:29:11.034Z,99.99
2017-09-25T05:29:38.985Z,99.99
2017-09-25T05:30:07.032Z,99.99
2017-09-25T05:30:35.063Z,99.99
2017-09-25T05:31:03.123Z,99.99
2017-09-25T05:31:31.175Z,99.99
2017-09-25T05:31:59.102Z,99.99
2017-09-25T05:32:27.059Z,99.99
2017-09-25T05:32:55.114Z,99.99
2017-09-25T05:33:23.466Z,99.99
2017-09-25T05:33:51.526Z,99.99
2017-09-25T05:34:19.492Z,99.99
2017-09-25T05:34:47.321Z,99.99
2017-09-25T05:35:15.457Z,99.99
2017-09-25T05:35:43.593Z,99.99
2017-09-25T05:36:11.512Z,99.99
2017-09-25T05:36:39.560Z,99.99
2017-09-25T05:37:07.598Z,99.99
2017-09-25T05:37:35.585Z,99.99
2017-09-25T05:38:03.712Z,99.99
2017-09-25T05:38:31.938Z,99.99
2017-09-25T05:38:59.760Z,99.99
2017-09-25T05:39:27.779Z,99.99
2017-09-25T05:39:55.723Z,99.99
2017-09-25T05:40:23.638Z,99.99
2017-09-25T05:40:51.553Z,99.99
2017-09-25T05:41:19.602Z,99.99
2017-09-25T05:41:47.755Z,99.99
2017-09-25T05:42:15.809Z,99.99
2017-09-25T05:42:43.865Z,99.99
2017-09-25T05:43:11.784Z,99.99
2017-09-25T05:43:39.920Z,99.99
2017-09-25T05:44:08.044Z,99.99
2017-09-25T05:44:35.966Z,99.99
2017-09-25T05:45:03.996Z,99.99
2017-09-25T05:45:32.006Z,99.99
2017-09-25T05:46:00.166Z,99.99
2017-09-25T05:46:28.142Z,99.99
2017-09-25T05:46:56.172Z,99.99
2017-09-25T05:47:24.201Z,99.99
2017-09-25T05:47:52.329Z,99.99
2017-09-25T05:48:20.387Z,99.99
2017-09-25T05:48:48.393Z,99.99
2017-09-25T05:49:16.427Z,99.99
2017-09-25T05:49:44.446Z,99.99
2017-09-25T05:50:12.545Z,99.99
2017-09-25T05:50:40.594Z,99.99
2017-09-25T05:51:08.707Z,99.99
2017-09-25T05:51:36.747Z,99.99
2017-09-25T05:52:04.683Z,99.99
2017-09-25T05:52:32.712Z,99.99
2017-09-25T05:53:00.753Z,99.99
2017-09-25T05:53:28.958Z,99.99
2017-09-25T05:53:57.040Z,99.99
2017-09-25T05:54:24.846Z,99.99
2017-09-25T05:54:52.819Z,99.99
2017-09-25T05:55:20.744Z,99.99
2017-09-25T05:55:48.773Z,99.99
2017-09-25T05:56:16.926Z,99.99
2017-09-25T05:56:44.964Z,99.99
2017-09-25T05:57:12.979Z,99.99
2017-09-25T05:57:40.824Z,99.99
2017-09-25T05:58:08.867Z,99.99
2017-09-25T05:58:37.068Z,99.99
2017-09-25T05:59:05.132Z,99.99
2017-09-25T05:59:33.148Z,99.99
2017-09-25T06:00:01.265Z,99.99
2017-09-25T06:00:29.215Z,99.99
2017-09-25T06:00:57.414Z,99.99
2017-09-25T06:01:25.554Z,99.99
2017-09-25T06:01:53.592Z,99.99